KMTN

Martin State Airport

Baltimore, Maryland, USA
METAR KMTN 150721Z AUTO 00000KT 5SM RA OVC003 09/09 A3018 RMK AO2
Observed Flight Rules
Dec-15 @ 07:21 UTC (9 minutes ago) Instrument Flight Rules
Visibility Clouds Conditions
5 miles
  • Overcast at 300' AGL
  • Rain
Temperatures Readings
Current 9°C / 48°F
Dewpoint 9°C / 48°F
Humidity 100%
Altimeter 30.18" Hg
Pressure 1022 hPa
Elevation 7
METAR KMTN 150721Z AUTO 00000KT 5SM RA OVC003 09/09 A3018 RMK AO2
Observed Flight Rules
Dec-15 @ 07:21 UTC
(9 minutes ago)
LIFR
Clouds
  • Overcast at 300' AGL
Conditions
  • Rain
Temperature Dewpoint
9°C / 48°F 9°C / 48°F
Humidity Altimeter Pressure
100% 30.18" Hg 1022 hPa